sensor_id;sensor_type;location;lat;lon;timestamp;pressure;altitude;pressure_sealevel;temperature;humidity
60345;BME280;46188;52.324;8.032;2022-10-16T00:00:56;99927.47;;;12.02;100.00
60345;BME280;46188;52.324;8.032;2022-10-16T00:03:22;99938.91;;;12.10;100.00
60345;BME280;46188;52.324;8.032;2022-10-16T00:05:47;99946.81;;;12.12;100.00
60345;BME280;46188;52.324;8.032;2022-10-16T00:08:13;99943.34;;;12.05;100.00
60345;BME280;46188;52.324;8.032;2022-10-16T00:10:39;99939.78;;;12.12;100.00
60345;BME280;46188;52.324;8.032;2022-10-16T00:13:04;99942.41;;;12.18;100.00
60345;BME280;46188;52.324;8.032;2022-10-16T00:15:33;99940.69;;;12.05;100.00
60345;BME280;46188;52.324;8.032;2022-10-16T00:18:01;99938.03;;;12.05;100.00
60345;BME280;46188;52.324;8.032;2022-10-16T00:20:26;99938.00;;;12.11;100.00
60345;BME280;46188;52.324;8.032;2022-10-16T00:22:52;99937.13;;;12.15;100.00
60345;BME280;46188;52.324;8.032;2022-10-16T00:25:17;99939.78;;;12.05;100.00
60345;BME280;46188;52.324;8.032;2022-10-16T00:27:43;99931.91;;;12.00;100.00
60345;BME280;46188;52.324;8.032;2022-10-16T00:30:08;99945.97;;;12.05;100.00
60345;BME280;46188;52.324;8.032;2022-10-16T00:32:34;99946.84;;;12.03;100.00
60345;BME280;46188;52.324;8.032;2022-10-16T00:34:59;99936.28;;;12.04;100.00
60345;BME280;46188;52.324;8.032;2022-10-16T00:37:25;99932.78;;;12.02;100.00
60345;BME280;46188;52.324;8.032;2022-10-16T00:39:50;99939.81;;;12.00;100.00
60345;BME280;46188;52.324;8.032;2022-10-16T00:42:17;99945.06;;;12.05;100.00
60345;BME280;46188;52.324;8.032;2022-10-16T00:49:45;99937.19;;;11.83;100.00
60345;BME280;46188;52.324;8.032;2022-10-16T00:52:12;99941.63;;;11.72;100.00
60345;BME280;46188;52.324;8.032;2022-10-16T00:54:38;99949.53;;;11.75;100.00
60345;BME280;46188;52.324;8.032;2022-10-16T00:57:05;99953.94;;;11.74;100.00
60345;BME280;46188;52.324;8.032;2022-10-16T00:59:33;99954.78;;;11.86;100.00
60345;BME280;46188;52.324;8.032;2022-10-16T01:01:59;99954.78;;;11.87;100.00
60345;BME280;46188;52.324;8.032;2022-10-16T01:04:26;99944.22;;;11.87;100.00
60345;BME280;46188;52.324;8.032;2022-10-16T01:15:25;99949.56;;;11.62;100.00
60345;BME280;46188;52.324;8.032;2022-10-16T01:18:24;99949.56;;;11.70;100.00
60345;BME280;46188;52.324;8.032;2022-10-16T01:31:53;99942.50;;;11.71;100.00
60345;BME280;46188;52.324;8.032;2022-10-16T01:34:28;99939.00;;;11.67;100.00
60345;BME280;46188;52.324;8.032;2022-10-16T01:37:02;99937.22;;;11.78;100.00
60345;BME280;46188;52.324;8.032;2022-10-16T01:39:32;99941.59;;;11.84;100.00
60345;BME280;46188;52.324;8.032;2022-10-16T01:42:11;99948.66;;;11.70;100.00
60345;BME280;46188;52.324;8.032;2022-10-16T01:44:38;99951.28;;;11.80;100.00
60345;BME280;46188;52.324;8.032;2022-10-16T01:47:07;99956.56;;;11.71;100.00
60345;BME280;46188;52.324;8.032;2022-10-16T01:49:36;99946.00;;;11.76;100.00
60345;BME280;46188;52.324;8.032;2022-10-16T01:52:06;99953.94;;;11.80;100.00
60345;BME280;46188;52.324;8.032;2022-10-16T01:54:35;99954.84;;;11.58;100.00
60345;BME280;46188;52.324;8.032;2022-10-16T01:57:04;99960.13;;;11.67;100.00
60345;BME280;46188;52.324;8.032;2022-10-16T01:59:33;99963.66;;;11.54;100.00
60345;BME280;46188;52.324;8.032;2022-10-16T02:02:05;99961.88;;;11.45;100.00
60345;BME280;46188;52.324;8.032;2022-10-16T02:04:45;99963.66;;;11.54;100.00
60345;BME280;46188;52.324;8.032;2022-10-16T02:07:11;99968.06;;;11.44;100.00
60345;BME280;46188;52.324;8.032;2022-10-16T02:09:38;99964.56;;;11.39;100.00
60345;BME280;46188;52.324;8.032;2022-10-16T02:12:09;99954.88;;;11.49;100.00
60345;BME280;46188;52.324;8.032;2022-10-16T02:14:38;99957.50;;;11.38;100.00
60345;BME280;46188;52.324;8.032;2022-10-16T02:17:16;99954.88;;;11.33;100.00
60345;BME280;46188;52.324;8.032;2022-10-16T02:19:42;99960.16;;;11.36;100.00
60345;BME280;46188;52.324;8.032;2022-10-16T02:22:33;99960.16;;;11.35;100.00
60345;BME280;46188;52.324;8.032;2022-10-16T02:25:08;99954.00;;;11.30;100.00
60345;BME280;46188;52.324;8.032;2022-10-16T02:27:42;99958.38;;;11.35;100.00
60345;BME280;46188;52.324;8.032;2022-10-16T02:30:28;99958.41;;;11.34;100.00
60345;BME280;46188;52.324;8.032;2022-10-16T02:32:56;99956.63;;;11.34;100.00
60345;BME280;46188;52.324;8.032;2022-10-16T02:35:24;99953.09;;;11.38;100.00
60345;BME280;46188;52.324;8.032;2022-10-16T02:37:50;99953.13;;;11.31;100.00
60345;BME280;46188;52.324;8.032;2022-10-16T02:40:17;99954.88;;;11.38;100.00
60345;BME280;46188;52.324;8.032;2022-10-16T02:42:43;99949.59;;;11.42;100.00
60345;BME280;46188;52.324;8.032;2022-10-16T02:45:11;99958.38;;;11.44;100.00
60345;BME280;46188;52.324;8.032;2022-10-16T02:47:37;99965.41;;;11.55;100.00
60345;BME280;46188;52.324;8.032;2022-10-16T02:50:03;99950.47;;;11.32;100.00
60345;BME280;46188;52.324;8.032;2022-10-16T02:52:29;99945.16;;;11.75;100.00
60345;BME280;46188;52.324;8.032;2022-10-16T02:54:54;99946.06;;;11.56;100.00
60345;BME280;46188;52.324;8.032;2022-10-16T02:57:20;99954.88;;;11.50;100.00
60345;BME280;46188;52.324;8.032;2022-10-16T02:59:45;99960.13;;;11.59;100.00
60345;BME280;46188;52.324;8.032;2022-10-16T03:02:11;99964.53;;;11.57;100.00
60345;BME280;46188;52.324;8.032;2022-10-16T03:04:36;99950.44;;;11.66;100.00
60345;BME280;46188;52.324;8.032;2022-10-16T03:07:02;99953.06;;;11.78;100.00
60345;BME280;46188;52.324;8.032;2022-10-16T03:09:27;99952.13;;;11.98;100.00
60345;BME280;46188;52.324;8.032;2022-10-16T03:11:53;99953.03;;;11.88;100.00
60345;BME280;46188;52.324;8.032;2022-10-16T03:14:18;99952.13;;;11.96;100.00
60345;BME280;46188;52.324;8.032;2022-10-16T03:16:44;99954.81;;;11.95;100.00
60345;BME280;46188;52.324;8.032;2022-10-16T03:19:09;99964.50;;;11.82;100.00
60345;BME280;46188;52.324;8.032;2022-10-16T03:21:35;99969.78;;;11.87;100.00
60345;BME280;46188;52.324;8.032;2022-10-16T03:24:00;99966.22;;;11.86;100.00
60345;BME280;46188;52.324;8.032;2022-10-16T03:26:26;99960.97;;;12.02;100.00
60345;BME280;46188;52.324;8.032;2022-10-16T03:28:51;99955.66;;;11.91;100.00
60345;BME280;46188;52.324;8.032;2022-10-16T03:31:16;99955.66;;;11.86;100.00
60345;BME280;46188;52.324;8.032;2022-10-16T03:33:42;99950.38;;;11.89;100.00
60345;BME280;46188;52.324;8.032;2022-10-16T03:36:07;99957.41;;;11.98;100.00
60345;BME280;46188;52.324;8.032;2022-10-16T03:38:33;99960.09;;;11.79;100.00
60345;BME280;46188;52.324;8.032;2022-10-16T03:40:58;99969.78;;;11.82;100.00
60345;BME280;46188;52.324;8.032;2022-10-16T03:43:23;99969.75;;;12.04;100.00
60345;BME280;46188;52.324;8.032;2022-10-16T03:45:52;99975.03;;;12.10;100.00
60345;BME280;46188;52.324;8.032;2022-10-16T03:48:18;99971.47;;;12.11;100.00
60345;BME280;46188;52.324;8.032;2022-10-16T03:50:44;99970.63;;;12.03;100.00
60345;BME280;46188;52.324;8.032;2022-10-16T03:53:09;99966.25;;;12.00;100.00
60345;BME280;46188;52.324;8.032;2022-10-16T03:55:35;99956.56;;;11.93;100.00
60345;BME280;46188;52.324;8.032;2022-10-16T03:58:00;99961.81;;;11.90;100.00
60345;BME280;46188;52.324;8.032;2022-10-16T04:00:26;99956.53;;;11.90;100.00
60345;BME280;46188;52.324;8.032;2022-10-16T04:02:52;99959.19;;;11.99;100.00
60345;BME280;46188;52.324;8.032;2022-10-16T04:05:17;99958.25;;;12.14;100.00
60345;BME280;46188;52.324;8.032;2022-10-16T04:07:43;99964.41;;;12.17;100.00
60345;BME280;46188;52.324;8.032;2022-10-16T04:10:08;99970.59;;;12.10;100.00
60345;BME280;46188;52.324;8.032;2022-10-16T04:12:34;99977.63;;;12.16;100.00
60345;BME280;46188;52.324;8.032;2022-10-16T04:14:59;99979.41;;;12.12;100.00
60345;BME280;46188;52.324;8.032;2022-10-16T04:17:25;99973.25;;;12.16;100.00
60345;BME280;46188;52.324;8.032;2022-10-16T04:19:50;99982.06;;;12.06;100.00
60345;BME280;46188;52.324;8.032;2022-10-16T04:22:16;99975.03;;;11.97;100.00
60345;BME280;46188;52.324;8.032;2022-10-16T04:24:41;99982.97;;;11.91;100.00
60345;BME280;46188;52.324;8.032;2022-10-16T04:27:07;99980.31;;;11.90;100.00
60345;BME280;46188;52.324;8.032;2022-10-16T04:29:32;99997.06;;;11.90;100.00
60345;BME280;46188;52.324;8.032;2022-10-16T04:31:57;99999.72;;;11.92;100.00
60345;BME280;46188;52.324;8.032;2022-10-16T04:34:23;100005.84;;;11.91;100.00
60345;BME280;46188;52.324;8.032;2022-10-16T04:36:48;100012.91;;;11.96;100.00
60345;BME280;46188;52.324;8.032;2022-10-16T04:39:14;100001.47;;;11.99;100.00
60345;BME280;46188;52.324;8.032;2022-10-16T04:41:40;100000.53;;;12.06;100.00
60345;BME280;46188;52.324;8.032;2022-10-16T04:44:05;99997.03;;;12.04;100.00
60345;BME280;46188;52.324;8.032;2022-10-16T04:46:31;99997.03;;;12.04;100.00
60345;BME280;46188;52.324;8.032;2022-10-16T04:48:56;100000.59;;;11.94;100.00
60345;BME280;46188;52.324;8.032;2022-10-16T04:51:22;100006.75;;;11.91;100.00
60345;BME280;46188;52.324;8.032;2022-10-16T04:53:48;100012.03;;;11.85;100.00
60345;BME280;46188;52.324;8.032;2022-10-16T04:56:13;100017.31;;;11.94;100.00
60345;BME280;46188;52.324;8.032;2022-10-16T04:58:40;100021.69;;;11.88;100.00
60345;BME280;46188;52.324;8.032;2022-10-16T05:01:05;100017.31;;;12.00;100.00
60345;BME280;46188;52.324;8.032;2022-10-16T05:03:31;100016.44;;;11.97;100.00
60345;BME280;46188;52.324;8.032;2022-10-16T05:05:56;100023.47;;;12.01;100.00
60345;BME280;46188;52.324;8.032;2022-10-16T05:08:22;100016.38;;;12.12;100.00
60345;BME280;46188;52.324;8.032;2022-10-16T05:10:47;100004.03;;;12.16;100.00
60345;BME280;46188;52.324;8.032;2022-10-16T05:13:12;100015.47;;;12.19;100.00
60345;BME280;46188;52.324;8.032;2022-10-16T05:15:38;100021.66;;;12.15;100.00
60345;BME280;46188;52.324;8.032;2022-10-16T05:18:04;100019.03;;;12.06;100.00
60345;BME280;46188;52.324;8.032;2022-10-16T05:20:29;100019.91;;;12.14;100.00
60345;BME280;46188;52.324;8.032;2022-10-16T05:22:55;100021.66;;;12.15;100.00
60345;BME280;46188;52.324;8.032;2022-10-16T05:25:20;100030.50;;;12.02;100.00
60345;BME280;46188;52.324;8.032;2022-10-16T05:27:49;100035.81;;;11.99;100.00
60345;BME280;46188;52.324;8.032;2022-10-16T05:30:15;100039.31;;;12.04;100.00
60345;BME280;46188;52.324;8.032;2022-10-16T05:32:41;100038.41;;;12.13;100.00
60345;BME280;46188;52.324;8.032;2022-10-16T05:35:07;100043.72;;;12.07;100.00
60345;BME280;46188;52.324;8.032;2022-10-16T05:37:32;100048.97;;;12.11;100.00
60345;BME280;46188;52.324;8.032;2022-10-16T05:39:58;100041.94;;;12.06;100.00
60345;BME280;46188;52.324;8.032;2022-10-16T05:42:23;100044.59;;;12.01;100.00
60345;BME280;46188;52.324;8.032;2022-10-16T05:44:49;100044.59;;;12.07;100.00
60345;BME280;46188;52.324;8.032;2022-10-16T05:47:14;100049.00;;;12.04;100.00
60345;BME280;46188;52.324;8.032;2022-10-16T05:49:40;100064.81;;;12.11;100.00
60345;BME280;46188;52.324;8.032;2022-10-16T05:52:05;100056.03;;;12.12;100.00
60345;BME280;46188;52.324;8.032;2022-10-16T05:54:30;100053.38;;;12.08;100.00
60345;BME280;46188;52.324;8.032;2022-10-16T05:56:56;100069.22;;;12.17;100.00
60345;BME280;46188;52.324;8.032;2022-10-16T05:59:21;100069.25;;;12.09;100.00
60345;BME280;46188;52.324;8.032;2022-10-16T06:01:47;100073.66;;;12.13;100.00
60345;BME280;46188;52.324;8.032;2022-10-16T06:04:12;100073.66;;;12.09;100.00
60345;BME280;46188;52.324;8.032;2022-10-16T06:06:37;100074.53;;;12.06;100.00
60345;BME280;46188;52.324;8.032;2022-10-16T06:09:03;100071.88;;;12.06;100.00
60345;BME280;46188;52.324;8.032;2022-10-16T06:11:31;100073.66;;;11.98;100.00
60345;BME280;46188;52.324;8.032;2022-10-16T06:13:58;100077.19;;;11.97;100.00
60345;BME280;46188;52.324;8.032;2022-10-16T06:16:27;100078.06;;;12.05;100.00
60345;BME280;46188;52.324;8.032;2022-10-16T06:18:54;100076.28;;;12.07;100.00
60345;BME280;46188;52.324;8.032;2022-10-16T06:21:22;100091.25;;;12.14;100.00
60345;BME280;46188;52.324;8.032;2022-10-16T06:23:50;100083.31;;;12.21;100.00
60345;BME280;46188;52.324;8.032;2022-10-16T06:26:17;100086.81;;;12.29;100.00
60345;BME280;46188;52.324;8.032;2022-10-16T06:28:43;100087.72;;;12.17;100.00
60345;BME280;46188;52.324;8.032;2022-10-16T06:31:10;100090.34;;;12.28;100.00
60345;BME280;46188;52.324;8.032;2022-10-16T06:33:36;100094.75;;;12.29;100.00
60345;BME280;46188;52.324;8.032;2022-10-16T06:36:05;100100.94;;;12.25;100.00
60345;BME280;46188;52.324;8.032;2022-10-16T06:38:31;100098.25;;;12.37;100.00
60345;BME280;46188;52.324;8.032;2022-10-16T06:40:57;100106.16;;;12.49;100.00
60345;BME280;46188;52.324;8.032;2022-10-16T06:43:22;100114.94;;;12.61;100.00
60345;BME280;46188;52.324;8.032;2022-10-16T06:45:54;100114.94;;;12.61;100.00
60345;BME280;46188;52.324;8.032;2022-10-16T06:48:21;100115.84;;;12.60;100.00
60345;BME280;46188;52.324;8.032;2022-10-16T06:51:04;100127.28;;;12.60;100.00
60345;BME280;46188;52.324;8.032;2022-10-16T06:53:32;100133.44;;;12.64;100.00
60345;BME280;46188;52.324;8.032;2022-10-16T06:56:09;100138.72;;;12.59;100.00
60345;BME280;46188;52.324;8.032;2022-10-16T06:58:35;100140.50;;;12.63;100.00
60345;BME280;46188;52.324;8.032;2022-10-16T07:01:00;100141.38;;;12.64;100.00
60345;BME280;46188;52.324;8.032;2022-10-16T07:03:26;100144.03;;;12.56;100.00
60345;BME280;46188;52.324;8.032;2022-10-16T07:05:51;100151.09;;;12.60;100.00
60345;BME280;46188;52.324;8.032;2022-10-16T07:08:17;100152.84;;;12.61;100.00
60345;BME280;46188;52.324;8.032;2022-10-16T07:10:42;100166.06;;;12.53;100.00
60345;BME280;46188;52.324;8.032;2022-10-16T07:13:07;100173.13;;;12.48;100.00
60345;BME280;46188;52.324;8.032;2022-10-16T07:15:33;100181.06;;;12.47;100.00
60345;BME280;46188;52.324;8.032;2022-10-16T07:17:59;100185.50;;;12.46;100.00
60345;BME280;46188;52.324;8.032;2022-10-16T07:20:25;100190.75;;;12.49;100.00
60345;BME280;46188;52.324;8.032;2022-10-16T07:22:51;100195.16;;;12.47;100.00
60345;BME280;46188;52.324;8.032;2022-10-16T07:25:17;100200.47;;;12.40;100.00
60345;BME280;46188;52.324;8.032;2022-10-16T07:27:42;100207.50;;;12.37;100.00
60345;BME280;46188;52.324;8.032;2022-10-16T07:30:08;100209.28;;;12.48;100.00
60345;BME280;46188;52.324;8.032;2022-10-16T07:32:33;100220.69;;;12.70;100.00
60345;BME280;46188;52.324;8.032;2022-10-16T07:34:59;100219.78;;;12.82;100.00
60345;BME280;46188;52.324;8.032;2022-10-16T07:37:24;100225.91;;;13.01;100.00
60345;BME280;46188;52.324;8.032;2022-10-16T07:39:49;100231.16;;;13.15;100.00
60345;BME280;46188;52.324;8.032;2022-10-16T07:42:15;100232.88;;;13.28;100.00
60345;BME280;46188;52.324;8.032;2022-10-16T07:44:40;100231.97;;;13.40;100.00
60345;BME280;46188;52.324;8.032;2022-10-16T07:47:06;100242.47;;;13.60;100.00
60345;BME280;46188;52.324;8.032;2022-10-16T07:49:31;100242.47;;;13.61;100.00
60345;BME280;46188;52.324;8.032;2022-10-16T07:51:57;100255.56;;;13.91;100.00
60345;BME280;46188;52.324;8.032;2022-10-16T07:54:22;100250.91;;;14.28;100.00
60345;BME280;46188;52.324;8.032;2022-10-16T07:56:48;100262.22;;;14.49;100.00
60345;BME280;46188;52.324;8.032;2022-10-16T07:59:13;100261.88;;;14.89;100.00
60345;BME280;46188;52.324;8.032;2022-10-16T08:01:38;100266.34;;;15.63;100.00
60345;BME280;46188;52.324;8.032;2022-10-16T08:04:04;100259.72;;;17.91;95.26
60345;BME280;46188;52.324;8.032;2022-10-16T08:06:35;100268.28;;;19.45;80.09
60345;BME280;46188;52.324;8.032;2022-10-16T08:09:01;100266.44;;;19.47;79.09
60345;BME280;46188;52.324;8.032;2022-10-16T08:11:27;100273.00;;;19.04;81.48
60345;BME280;46188;52.324;8.032;2022-10-16T08:13:52;100259.69;;;21.99;67.71
60345;BME280;46188;52.324;8.032;2022-10-16T08:16:18;100253.25;;;25.66;53.21
60345;BME280;46188;52.324;8.032;2022-10-16T08:18:43;100266.72;;;26.63;48.83
60345;BME280;46188;52.324;8.032;2022-10-16T08:21:14;100269.91;;;24.54;52.81
60345;BME280;46188;52.324;8.032;2022-10-16T08:23:40;100286.88;;;27.47;45.07
60345;BME280;46188;52.324;8.032;2022-10-16T08:26:06;100284.09;;;26.90;42.84
60345;BME280;46188;52.324;8.032;2022-10-16T08:28:32;100287.31;;;27.41;43.15
60345;BME280;46188;52.324;8.032;2022-10-16T08:31:12;100280.41;;;27.78;40.53
60345;BME280;46188;52.324;8.032;2022-10-16T08:33:40;100313.56;;;29.07;39.41
60345;BME280;46188;52.324;8.032;2022-10-16T08:36:06;100302.25;;;31.71;34.61
60345;BME280;46188;52.324;8.032;2022-10-16T08:38:32;100311.97;;;27.06;41.55
60345;BME280;46188;52.324;8.032;2022-10-16T08:41:27;100307.97;;;34.54;29.19
60345;BME280;46188;52.324;8.032;2022-10-16T08:49:03;100299.91;;;35.02;27.43
60345;BME280;46188;52.324;8.032;2022-10-16T08:51:34;100303.63;;;35.20;26.78
60345;BME280;46188;52.324;8.032;2022-10-16T08:56:30;100299.00;;;39.76;21.58
60345;BME280;46188;52.324;8.032;2022-10-16T08:58:58;100300.97;;;38.77;22.40
60345;BME280;46188;52.324;8.032;2022-10-16T09:01:32;100302.88;;;38.93;21.53
60345;BME280;46188;52.324;8.032;2022-10-16T09:09:34;100309.56;;;39.64;20.56
60345;BME280;46188;52.324;8.032;2022-10-16T09:20:18;100307.97;;;39.70;20.53
60345;BME280;46188;52.324;8.032;2022-10-16T09:22:44;100310.22;;;39.75;20.15
60345;BME280;46188;52.324;8.032;2022-10-16T09:25:15;100304.19;;;38.56;20.72
60345;BME280;46188;52.324;8.032;2022-10-16T09:27:42;100321.22;;;36.86;23.63
60345;BME280;46188;52.324;8.032;2022-10-16T09:30:17;100332.69;;;40.51;19.81
60345;BME280;46188;52.324;8.032;2022-10-16T09:32:45;100321.94;;;38.11;20.94
60345;BME280;46188;52.324;8.032;2022-10-16T09:35:15;100327.84;;;37.37;22.25
60345;BME280;46188;52.324;8.032;2022-10-16T09:37:43;100323.97;;;36.86;23.15
60345;BME280;46188;52.324;8.032;2022-10-16T09:40:27;100326.94;;;37.10;22.85
60345;BME280;46188;52.324;8.032;2022-10-16T09:46:08;100332.19;;;38.27;21.90
60345;BME280;46188;52.324;8.032;2022-10-16T09:56:39;100350.13;;;23.71;43.33
60345;BME280;46188;52.324;8.032;2022-10-16T09:59:13;100377.22;;;26.04;41.83
60345;BME280;46188;52.324;8.032;2022-10-16T10:01:41;100359.66;;;24.18;43.45
60345;BME280;46188;52.324;8.032;2022-10-16T10:04:08;100373.63;;;20.60;53.11
60345;BME280;46188;52.324;8.032;2022-10-16T10:06:36;100362.19;;;25.65;41.25
60345;BME280;46188;52.324;8.032;2022-10-16T10:09:18;100381.03;;;20.80;53.25
60345;BME280;46188;52.324;8.032;2022-10-16T10:11:59;100372.94;;;20.25;54.55
60345;BME280;46188;52.324;8.032;2022-10-16T10:14:48;100375.19;;;17.49;66.16
60345;BME280;46188;52.324;8.032;2022-10-16T10:17:23;100379.72;;;25.04;46.38
60345;BME280;46188;52.324;8.032;2022-10-16T10:19:57;100382.94;;;32.07;30.07
60345;BME280;46188;52.324;8.032;2022-10-16T10:27:49;100398.78;;;38.89;21.14
60345;BME280;46188;52.324;8.032;2022-10-16T10:36:14;100393.81;;;39.92;20.44
60345;BME280;46188;52.324;8.032;2022-10-16T10:47:05;100378.75;;;35.57;24.77
60345;BME280;46188;52.324;8.032;2022-10-16T10:55:45;100389.38;;;34.72;25.27
60345;BME280;46188;52.324;8.032;2022-10-16T11:01:09;100382.44;;;25.74;37.63
60345;BME280;46188;52.324;8.032;2022-10-16T11:04:01;100390.47;;;20.92;49.77
60345;BME280;46188;52.324;8.032;2022-10-16T11:06:43;100384.22;;;19.06;56.25
60345;BME280;46188;52.324;8.032;2022-10-16T11:09:16;100397.34;;;18.40;60.44
60345;BME280;46188;52.324;8.032;2022-10-16T11:14:30;100393.41;;;23.87;44.97
60345;BME280;46188;52.324;8.032;2022-10-16T11:17:10;100393.69;;;22.27;46.88
60345;BME280;46188;52.324;8.032;2022-10-16T11:25:02;100393.59;;;25.33;41.07
60345;BME280;46188;52.324;8.032;2022-10-16T11:27:40;100399.34;;;25.60;40.52
60345;BME280;46188;52.324;8.032;2022-10-16T11:30:18;100395.69;;;25.09;41.47
60345;BME280;46188;52.324;8.032;2022-10-16T11:35:47;100403.16;;;21.90;47.91
60345;BME280;46188;52.324;8.032;2022-10-16T11:40:57;100410.00;;;24.55;43.28
60345;BME280;46188;52.324;8.032;2022-10-16T11:43:41;100406.88;;;24.06;43.07
60345;BME280;46188;52.324;8.032;2022-10-16T11:46:12;100409.38;;;24.86;42.40
60345;BME280;46188;52.324;8.032;2022-10-16T11:48:54;100413.81;;;24.11;43.03
60345;BME280;46188;52.324;8.032;2022-10-16T11:51:38;100413.88;;;23.07;44.87
60345;BME280;46188;52.324;8.032;2022-10-16T11:56:40;100420.66;;;21.77;46.57
60345;BME280;46188;52.324;8.032;2022-10-16T12:01:52;100433.44;;;21.94;47.81
60345;BME280;46188;52.324;8.032;2022-10-16T12:07:02;100444.72;;;21.27;49.68
60345;BME280;46188;52.324;8.032;2022-10-16T12:09:31;100436.22;;;21.14;48.86
60345;BME280;46188;52.324;8.032;2022-10-16T12:11:58;100450.84;;;19.14;53.01
60345;BME280;46188;52.324;8.032;2022-10-16T12:16:55;100448.16;;;20.75;50.90
60345;BME280;46188;52.324;8.032;2022-10-16T12:19:22;100437.28;;;18.86;55.24
60345;BME280;46188;52.324;8.032;2022-10-16T12:21:50;100445.69;;;18.67;56.52
60345;BME280;46188;52.324;8.032;2022-10-16T12:24:35;100442.00;;;18.32;56.76
60345;BME280;46188;52.324;8.032;2022-10-16T12:27:03;100439.69;;;18.57;56.71
60345;BME280;46188;52.324;8.032;2022-10-16T12:29:33;100447.38;;;18.31;57.84
60345;BME280;46188;52.324;8.032;2022-10-16T15:46:11;100573.91;;;15.33;80.43
60345;BME280;46188;52.324;8.032;2022-10-16T15:48:36;100576.47;;;15.42;81.14
60345;BME280;46188;52.324;8.032;2022-10-16T15:51:05;100568.41;;;15.59;81.12
60345;BME280;46188;52.324;8.032;2022-10-16T15:53:31;100570.97;;;15.70;81.22
60345;BME280;46188;52.324;8.032;2022-10-16T15:55:57;100568.28;;;15.75;81.49
60345;BME280;46188;52.324;8.032;2022-10-16T15:58:22;100562.16;;;15.62;82.61
60345;BME280;46188;52.324;8.032;2022-10-16T16:00:55;100560.47;;;15.55;83.49
60345;BME280;46188;52.324;8.032;2022-10-16T16:03:21;100570.22;;;15.53;83.89
60345;BME280;46188;52.324;8.032;2022-10-16T16:05:46;100571.16;;;15.47;84.60
60345;BME280;46188;52.324;8.032;2022-10-16T16:08:12;100580.03;;;15.44;85.07
60345;BME280;46188;52.324;8.032;2022-10-16T16:10:37;100583.63;;;15.34;86.00
60345;BME280;46188;52.324;8.032;2022-10-16T16:13:03;100575.78;;;15.16;87.26
60345;BME280;46188;52.324;8.032;2022-10-16T16:15:28;100588.22;;;15.06;88.45
60345;BME280;46188;52.324;8.032;2022-10-16T16:17:53;100584.72;;;15.02;88.92
60345;BME280;46188;52.324;8.032;2022-10-16T16:20:19;100580.31;;;15.01;89.39
60345;BME280;46188;52.324;8.032;2022-10-16T16:22:44;100588.31;;;14.93;90.08
60345;BME280;46188;52.324;8.032;2022-10-16T16:25:10;100594.59;;;14.71;91.68
60345;BME280;46188;52.324;8.032;2022-10-16T16:27:35;100592.84;;;14.68;92.65
60345;BME280;46188;52.324;8.032;2022-10-16T16:30:04;100590.22;;;14.59;93.36
60345;BME280;46188;52.324;8.032;2022-10-16T16:32:30;100584.94;;;14.42;94.69
60345;BME280;46188;52.324;8.032;2022-10-16T16:34:56;100586.75;;;14.31;95.60
60345;BME280;46188;52.324;8.032;2022-10-16T16:37:21;100594.69;;;14.23;96.14
60345;BME280;46188;52.324;8.032;2022-10-16T16:39:47;100594.75;;;14.09;97.17
60345;BME280;46188;52.324;8.032;2022-10-16T16:42:12;100583.28;;;13.90;99.07
60345;BME280;46188;52.324;8.032;2022-10-16T16:44:38;100596.53;;;13.75;100.00
60345;BME280;46188;52.324;8.032;2022-10-16T16:47:04;100606.22;;;13.53;100.00
60345;BME280;46188;52.324;8.032;2022-10-16T16:49:30;100613.28;;;13.54;100.00
60345;BME280;46188;52.324;8.032;2022-10-16T16:51:55;100613.28;;;13.46;100.00
60345;BME280;46188;52.324;8.032;2022-10-16T16:54:21;100605.31;;;13.37;100.00
60345;BME280;46188;52.324;8.032;2022-10-16T16:56:46;100608.88;;;13.51;100.00
60345;BME280;46188;52.324;8.032;2022-10-16T16:59:17;100611.53;;;13.62;100.00
60345;BME280;46188;52.324;8.032;2022-10-16T17:01:44;100608.91;;;13.57;100.00
60345;BME280;46188;52.324;8.032;2022-10-16T17:04:10;100617.72;;;13.62;100.00
60345;BME280;46188;52.324;8.032;2022-10-16T17:06:36;100618.56;;;13.54;100.00
60345;BME280;46188;52.324;8.032;2022-10-16T17:09:03;100620.25;;;13.27;100.00
60345;BME280;46188;52.324;8.032;2022-10-16T17:11:29;100636.13;;;13.24;100.00
60345;BME280;46188;52.324;8.032;2022-10-16T17:13:56;100648.50;;;13.22;100.00
60345;BME280;46188;52.324;8.032;2022-10-16T17:16:25;100656.47;;;13.28;100.00
60345;BME280;46188;52.324;8.032;2022-10-16T17:18:51;100659.19;;;13.48;100.00
60345;BME280;46188;52.324;8.032;2022-10-16T17:21:18;100653.03;;;13.52;100.00
60345;BME280;46188;52.324;8.032;2022-10-16T17:23:44;100662.69;;;13.47;100.00
60345;BME280;46188;52.324;8.032;2022-10-16T17:26:13;100657.44;;;13.45;100.00
60345;BME280;46188;52.324;8.032;2022-10-16T17:28:39;100647.72;;;13.46;100.00
60345;BME280;46188;52.324;8.032;2022-10-16T17:33:33;100642.44;;;13.58;100.00
60345;BME280;46188;52.324;8.032;2022-10-16T17:35:58;100648.59;;;13.51;100.00
60345;BME280;46188;52.324;8.032;2022-10-16T17:38:24;100643.28;;;13.46;100.00
60345;BME280;46188;52.324;8.032;2022-10-16T17:40:49;100647.72;;;13.55;100.00
60345;BME280;46188;52.324;8.032;2022-10-16T17:43:15;100647.72;;;13.61;100.00
60345;BME280;46188;52.324;8.032;2022-10-16T17:45:40;100648.63;;;13.68;100.00
60345;BME280;46188;52.324;8.032;2022-10-16T17:48:06;100659.22;;;13.71;100.00
60345;BME280;46188;52.324;8.032;2022-10-16T17:50:32;100666.25;;;13.58;100.00
60345;BME280;46188;52.324;8.032;2022-10-16T17:52:57;100665.34;;;13.39;100.00
60345;BME280;46188;52.324;8.032;2022-10-16T17:55:23;100673.31;;;13.39;100.00